Aérodrome :
LOGIN :

S'inscrire | Disclaimer

   EN    FR    IT 

 










Légende :    VFR   VFR Marginal   IFR   IFR Intensif   IFR Très Intensif
Visi : 
Plafond : 
>= 8 km
>= 3000ft
5 à 8 km
1000 à 3000 ft
1500m à 5 km
500 à 1000 ft
800 à 1500m
200 à 500 ft
< 800m
< 200 ft
Symboles :   Orages  Brouillard  Fortes neiges  Fortes précipitations  Vent > 20 kt
SIGMETs :   Divers  Orages  Givrage  Turbulence  Onde Orograph.  Cendres Volcan.






- Altitude de l'aérodrome : 1090 ft
- Code IATA : CFE


LFLC - Clermont-Ferrand Auvergne

DERNIER METAR :
  • 280430Z AUTO 25006KT 5000 BR FEW002 01/00 Q1013 TEMPO 0400 FG VV///

METARs EXPIRÉS :
  • 280400Z AUTO VRB01KT 2100 0800 R26/1000U R08/1500D BCFG NSC 02/01 Q1013 TEMPO 0400 FG VV///
  • 280330Z AUTO 00000KT 2500 0550 R26/1000D R08/P2400 BCFG NSC 02/01 Q1014 TEMPO 0400 FG VV///
  • 280300Z AUTO 04003KT 3600 0600 R26/0750D R08/P2400 BCFG NSC 03/02 Q1014 TEMPO 0400 FG VV///
  • 280230Z AUTO 16001KT 9999 3900 FEW002 02/01 Q1014 TEMPO 0400 FG VV///
  • 280200Z AUTO 02001KT 9999 3700 R26/1300D NSC 03/02 Q1014 TEMPO 3000 BR

TAF AMD TAF LFLC
Valide du 28 à 03h jusqu'au 29 à 00h UTC


280348Z 2803/2824 VRB03KT 6000 NSC
TEMPO 2803/2808 0400 FG VV///
TEMPO 2812/2819 36008KT
BECMG 2819/2821 BKN014
ATIS : +33 4 73 62 74 38



MET'MAP, la Météo Aéronautique d'un coup d'oeil ! - Copyright ORBIFLY Décembre 2007 - Disclaimer

ORBIFLY MET'MAP TEAM :

Programmation & Développement : Alexandra Zaïnal
Sur une idée originale de : Baudouin d'Aumeries
Assistance à la programmation : Marc-Olivier Méhu
Soutien technique & logistique : Manuel Goepfert

Contact : metmap@orbifly.com




SOURCES & CREDITS :

   NOAA